sensor_id;sensor_type;location;lat;lon;timestamp;P1;durP1;ratioP1;P2;durP2;ratioP2
6436;SDS011;3251;53.550;9.918;2022-08-24T00:01:37;4.60;;;1.60;;
6436;SDS011;3251;53.550;9.918;2022-08-24T00:04:04;5.10;;;1.60;;
6436;SDS011;3251;53.550;9.918;2022-08-24T00:06:30;1.60;;;1.50;;
6436;SDS011;3251;53.550;9.918;2022-08-24T00:08:57;5.63;;;1.50;;
6436;SDS011;3251;53.550;9.918;2022-08-24T00:11:23;5.50;;;1.87;;
6436;SDS011;3251;53.550;9.918;2022-08-24T00:13:50;3.53;;;1.60;;
6436;SDS011;3251;53.550;9.918;2022-08-24T00:16:16;2.80;;;1.70;;
6436;SDS011;3251;53.550;9.918;2022-08-24T00:18:43;3.80;;;1.80;;
6436;SDS011;3251;53.550;9.918;2022-08-24T00:21:09;8.93;;;1.87;;
6436;SDS011;3251;53.550;9.918;2022-08-24T00:23:35;7.30;;;1.50;;
6436;SDS011;3251;53.550;9.918;2022-08-24T00:26:02;3.63;;;1.43;;
6436;SDS011;3251;53.550;9.918;2022-08-24T00:28:28;2.10;;;1.60;;
6436;SDS011;3251;53.550;9.918;2022-08-24T00:30:55;3.70;;;1.57;;
6436;SDS011;3251;53.550;9.918;2022-08-24T00:33:30;4.27;;;2.10;;
6436;SDS011;3251;53.550;9.918;2022-08-24T00:35:56;1.50;;;1.40;;
6436;SDS011;3251;53.550;9.918;2022-08-24T00:38:22;2.50;;;1.57;;
6436;SDS011;3251;53.550;9.918;2022-08-24T00:40:48;4.50;;;1.53;;
6436;SDS011;3251;53.550;9.918;2022-08-24T00:43:17;3.53;;;1.57;;
6436;SDS011;3251;53.550;9.918;2022-08-24T00:45:44;3.77;;;1.40;;
6436;SDS011;3251;53.550;9.918;2022-08-24T00:48:12;2.27;;;2.00;;
6436;SDS011;3251;53.550;9.918;2022-08-24T00:53:34;3.73;;;1.70;;
6436;SDS011;3251;53.550;9.918;2022-08-24T00:56:02;6.40;;;1.53;;
6436;SDS011;3251;53.550;9.918;2022-08-24T00:58:33;4.23;;;2.10;;
6436;SDS011;3251;53.550;9.918;2022-08-24T01:01:00;3.63;;;2.43;;
6436;SDS011;3251;53.550;9.918;2022-08-24T01:03:27;7.10;;;2.00;;
6436;SDS011;3251;53.550;9.918;2022-08-24T01:05:55;3.73;;;1.60;;
6436;SDS011;3251;53.550;9.918;2022-08-24T01:08:22;1.73;;;1.53;;
6436;SDS011;3251;53.550;9.918;2022-08-24T01:10:51;7.70;;;1.67;;
6436;SDS011;3251;53.550;9.918;2022-08-24T01:13:18;2.20;;;1.50;;
6436;SDS011;3251;53.550;9.918;2022-08-24T01:15:45;1.57;;;1.47;;
6436;SDS011;3251;53.550;9.918;2022-08-24T01:18:20;5.10;;;1.70;;
6436;SDS011;3251;53.550;9.918;2022-08-24T01:23:51;5.70;;;1.60;;
6436;SDS011;3251;53.550;9.918;2022-08-24T01:26:20;3.10;;;2.07;;
6436;SDS011;3251;53.550;9.918;2022-08-24T01:28:49;3.87;;;1.50;;
6436;SDS011;3251;53.550;9.918;2022-08-24T01:31:18;4.50;;;1.63;;
6436;SDS011;3251;53.550;9.918;2022-08-24T01:33:46;5.77;;;2.13;;
6436;SDS011;3251;53.550;9.918;2022-08-24T01:36:35;2.03;;;1.83;;
6436;SDS011;3251;53.550;9.918;2022-08-24T01:39:01;1.67;;;1.50;;
6436;SDS011;3251;53.550;9.918;2022-08-24T01:41:28;2.43;;;2.23;;
6436;SDS011;3251;53.550;9.918;2022-08-24T01:43:57;4.60;;;1.57;;
6436;SDS011;3251;53.550;9.918;2022-08-24T01:46:23;7.90;;;1.80;;
6436;SDS011;3251;53.550;9.918;2022-08-24T01:48:49;2.20;;;1.77;;
6436;SDS011;3251;53.550;9.918;2022-08-24T01:51:15;5.90;;;2.70;;
6436;SDS011;3251;53.550;9.918;2022-08-24T01:53:41;13.10;;;2.00;;
6436;SDS011;3251;53.550;9.918;2022-08-24T01:56:07;8.03;;;2.60;;
6436;SDS011;3251;53.550;9.918;2022-08-24T01:58:34;3.43;;;1.37;;
6436;SDS011;3251;53.550;9.918;2022-08-24T02:01:00;7.13;;;2.03;;
6436;SDS011;3251;53.550;9.918;2022-08-24T02:03:26;2.53;;;1.83;;
6436;SDS011;3251;53.550;9.918;2022-08-24T02:05:53;3.10;;;1.63;;
6436;SDS011;3251;53.550;9.918;2022-08-24T02:08:20;6.57;;;1.90;;
6436;SDS011;3251;53.550;9.918;2022-08-24T02:10:46;3.03;;;1.67;;
6436;SDS011;3251;53.550;9.918;2022-08-24T02:13:12;3.10;;;1.60;;
6436;SDS011;3251;53.550;9.918;2022-08-24T02:15:39;1.93;;;1.43;;
6436;SDS011;3251;53.550;9.918;2022-08-24T02:18:08;2.60;;;1.80;;
6436;SDS011;3251;53.550;9.918;2022-08-24T02:20:36;2.50;;;1.70;;
6436;SDS011;3251;53.550;9.918;2022-08-24T02:23:05;4.40;;;3.37;;
6436;SDS011;3251;53.550;9.918;2022-08-24T02:25:32;3.83;;;1.33;;
6436;SDS011;3251;53.550;9.918;2022-08-24T02:27:58;4.73;;;2.33;;
6436;SDS011;3251;53.550;9.918;2022-08-24T02:30:26;2.30;;;2.10;;
6436;SDS011;3251;53.550;9.918;2022-08-24T02:32:53;2.53;;;1.80;;
6436;SDS011;3251;53.550;9.918;2022-08-24T02:35:20;6.03;;;1.90;;
6436;SDS011;3251;53.550;9.918;2022-08-24T02:37:47;2.10;;;1.87;;
6436;SDS011;3251;53.550;9.918;2022-08-24T02:40:13;5.27;;;1.97;;
6436;SDS011;3251;53.550;9.918;2022-08-24T02:42:40;3.47;;;2.63;;
6436;SDS011;3251;53.550;9.918;2022-08-24T02:45:06;4.83;;;1.93;;
6436;SDS011;3251;53.550;9.918;2022-08-24T02:47:33;4.50;;;1.97;;
6436;SDS011;3251;53.550;9.918;2022-08-24T02:50:00;9.60;;;2.53;;
6436;SDS011;3251;53.550;9.918;2022-08-24T02:52:26;6.20;;;1.97;;
6436;SDS011;3251;53.550;9.918;2022-08-24T02:54:52;3.03;;;2.00;;
6436;SDS011;3251;53.550;9.918;2022-08-24T02:57:19;7.87;;;1.97;;
6436;SDS011;3251;53.550;9.918;2022-08-24T02:59:46;2.10;;;1.60;;
6436;SDS011;3251;53.550;9.918;2022-08-24T03:02:14;14.07;;;2.83;;
6436;SDS011;3251;53.550;9.918;2022-08-24T03:04:40;6.70;;;2.60;;
6436;SDS011;3251;53.550;9.918;2022-08-24T03:07:07;10.27;;;3.50;;
6436;SDS011;3251;53.550;9.918;2022-08-24T03:09:33;1.90;;;1.80;;
6436;SDS011;3251;53.550;9.918;2022-08-24T03:11:59;8.57;;;2.30;;
6436;SDS011;3251;53.550;9.918;2022-08-24T03:14:25;4.93;;;2.20;;
6436;SDS011;3251;53.550;9.918;2022-08-24T03:16:52;4.23;;;2.13;;
6436;SDS011;3251;53.550;9.918;2022-08-24T03:19:18;2.90;;;2.30;;
6436;SDS011;3251;53.550;9.918;2022-08-24T03:21:44;5.10;;;2.10;;
6436;SDS011;3251;53.550;9.918;2022-08-24T03:24:11;5.53;;;2.40;;
6436;SDS011;3251;53.550;9.918;2022-08-24T03:26:38;6.50;;;2.57;;
6436;SDS011;3251;53.550;9.918;2022-08-24T03:29:04;7.40;;;2.90;;
6436;SDS011;3251;53.550;9.918;2022-08-24T03:31:33;2.40;;;1.90;;
6436;SDS011;3251;53.550;9.918;2022-08-24T03:34:00;3.47;;;3.17;;
6436;SDS011;3251;53.550;9.918;2022-08-24T03:36:26;3.83;;;3.33;;
6436;SDS011;3251;53.550;9.918;2022-08-24T03:38:52;2.20;;;2.00;;
6436;SDS011;3251;53.550;9.918;2022-08-24T03:41:18;6.20;;;1.90;;
6436;SDS011;3251;53.550;9.918;2022-08-24T03:43:45;2.90;;;2.10;;
6436;SDS011;3251;53.550;9.918;2022-08-24T03:46:12;3.43;;;2.90;;
6436;SDS011;3251;53.550;9.918;2022-08-24T03:48:40;3.23;;;2.83;;
6436;SDS011;3251;53.550;9.918;2022-08-24T03:51:12;5.10;;;2.33;;
6436;SDS011;3251;53.550;9.918;2022-08-24T03:53:40;8.33;;;2.63;;
6436;SDS011;3251;53.550;9.918;2022-08-24T03:56:06;9.80;;;2.60;;
6436;SDS011;3251;53.550;9.918;2022-08-24T03:58:34;9.57;;;3.23;;
6436;SDS011;3251;53.550;9.918;2022-08-24T04:01:00;5.83;;;2.77;;
6436;SDS011;3251;53.550;9.918;2022-08-24T04:03:27;4.33;;;3.10;;
6436;SDS011;3251;53.550;9.918;2022-08-24T04:05:53;6.17;;;2.47;;
6436;SDS011;3251;53.550;9.918;2022-08-24T04:08:19;3.47;;;3.17;;
6436;SDS011;3251;53.550;9.918;2022-08-24T04:10:45;4.27;;;2.83;;
6436;SDS011;3251;53.550;9.918;2022-08-24T04:13:12;12.03;;;3.60;;
6436;SDS011;3251;53.550;9.918;2022-08-24T04:15:42;5.23;;;3.23;;
6436;SDS011;3251;53.550;9.918;2022-08-24T04:18:08;4.77;;;2.83;;
6436;SDS011;3251;53.550;9.918;2022-08-24T04:20:39;8.50;;;2.97;;
6436;SDS011;3251;53.550;9.918;2022-08-24T04:23:07;5.03;;;2.70;;
6436;SDS011;3251;53.550;9.918;2022-08-24T04:25:43;9.60;;;2.60;;
6436;SDS011;3251;53.550;9.918;2022-08-24T04:28:09;8.40;;;3.13;;
6436;SDS011;3251;53.550;9.918;2022-08-24T04:30:42;5.03;;;1.93;;
6436;SDS011;3251;53.550;9.918;2022-08-24T04:33:10;5.37;;;2.77;;
6436;SDS011;3251;53.550;9.918;2022-08-24T04:35:38;5.97;;;3.47;;
6436;SDS011;3251;53.550;9.918;2022-08-24T04:38:05;9.20;;;2.43;;
6436;SDS011;3251;53.550;9.918;2022-08-24T04:40:31;5.17;;;2.93;;
6436;SDS011;3251;53.550;9.918;2022-08-24T04:42:58;15.40;;;3.00;;
6436;SDS011;3251;53.550;9.918;2022-08-24T04:45:25;6.37;;;3.13;;
6436;SDS011;3251;53.550;9.918;2022-08-24T04:47:52;9.63;;;3.33;;
6436;SDS011;3251;53.550;9.918;2022-08-24T04:50:20;3.93;;;2.90;;
6436;SDS011;3251;53.550;9.918;2022-08-24T04:52:49;2.67;;;2.13;;
6436;SDS011;3251;53.550;9.918;2022-08-24T04:55:16;6.70;;;2.97;;
6436;SDS011;3251;53.550;9.918;2022-08-24T04:57:42;7.67;;;3.13;;
6436;SDS011;3251;53.550;9.918;2022-08-24T05:00:08;14.27;;;3.20;;
6436;SDS011;3251;53.550;9.918;2022-08-24T05:02:36;9.87;;;3.43;;
6436;SDS011;3251;53.550;9.918;2022-08-24T05:05:06;8.47;;;4.73;;
6436;SDS011;3251;53.550;9.918;2022-08-24T05:07:33;4.10;;;2.63;;
6436;SDS011;3251;53.550;9.918;2022-08-24T05:09:59;12.80;;;4.30;;
6436;SDS011;3251;53.550;9.918;2022-08-24T05:12:25;13.03;;;2.87;;
6436;SDS011;3251;53.550;9.918;2022-08-24T05:14:58;9.90;;;3.30;;
6436;SDS011;3251;53.550;9.918;2022-08-24T05:17:25;12.40;;;3.37;;
6436;SDS011;3251;53.550;9.918;2022-08-24T05:19:51;8.87;;;3.13;;
6436;SDS011;3251;53.550;9.918;2022-08-24T05:22:18;8.53;;;3.33;;
6436;SDS011;3251;53.550;9.918;2022-08-24T05:24:49;4.90;;;2.40;;
6436;SDS011;3251;53.550;9.918;2022-08-24T05:27:16;5.77;;;3.97;;
6436;SDS011;3251;53.550;9.918;2022-08-24T05:29:52;6.27;;;2.90;;
6436;SDS011;3251;53.550;9.918;2022-08-24T05:32:18;6.47;;;3.40;;
6436;SDS011;3251;53.550;9.918;2022-08-24T05:34:44;10.10;;;3.67;;
6436;SDS011;3251;53.550;9.918;2022-08-24T05:37:11;6.67;;;2.80;;
6436;SDS011;3251;53.550;9.918;2022-08-24T05:39:56;9.00;;;3.23;;
6436;SDS011;3251;53.550;9.918;2022-08-24T05:42:22;9.10;;;3.27;;
6436;SDS011;3251;53.550;9.918;2022-08-24T05:44:49;8.63;;;4.23;;
6436;SDS011;3251;53.550;9.918;2022-08-24T05:47:18;14.77;;;3.40;;
6436;SDS011;3251;53.550;9.918;2022-08-24T05:49:46;6.80;;;3.97;;
6436;SDS011;3251;53.550;9.918;2022-08-24T05:52:12;22.80;;;14.67;;
6436;SDS011;3251;53.550;9.918;2022-08-24T05:54:39;35.23;;;19.53;;
6436;SDS011;3251;53.550;9.918;2022-08-24T05:57:05;16.13;;;5.23;;
6436;SDS011;3251;53.550;9.918;2022-08-24T05:59:37;6.90;;;4.23;;
6436;SDS011;3251;53.550;9.918;2022-08-24T06:02:10;8.40;;;3.30;;
6436;SDS011;3251;53.550;9.918;2022-08-24T06:04:36;9.53;;;2.60;;
6436;SDS011;3251;53.550;9.918;2022-08-24T06:07:04;3.97;;;2.63;;
6436;SDS011;3251;53.550;9.918;2022-08-24T06:09:32;11.33;;;2.90;;
6436;SDS011;3251;53.550;9.918;2022-08-24T06:11:58;7.50;;;2.93;;
6436;SDS011;3251;53.550;9.918;2022-08-24T06:14:24;10.07;;;2.70;;
6436;SDS011;3251;53.550;9.918;2022-08-24T06:16:54;5.77;;;3.10;;
6436;SDS011;3251;53.550;9.918;2022-08-24T06:19:20;4.90;;;2.77;;
6436;SDS011;3251;53.550;9.918;2022-08-24T06:21:48;3.57;;;2.90;;
6436;SDS011;3251;53.550;9.918;2022-08-24T06:24:16;14.43;;;4.00;;
6436;SDS011;3251;53.550;9.918;2022-08-24T06:26:44;9.23;;;2.70;;
6436;SDS011;3251;53.550;9.918;2022-08-24T06:29:29;4.60;;;3.20;;
6436;SDS011;3251;53.550;9.918;2022-08-24T06:32:09;23.73;;;4.60;;
6436;SDS011;3251;53.550;9.918;2022-08-24T06:34:35;7.80;;;3.23;;
6436;SDS011;3251;53.550;9.918;2022-08-24T06:37:04;10.63;;;2.50;;
6436;SDS011;3251;53.550;9.918;2022-08-24T06:39:31;3.13;;;2.17;;
6436;SDS011;3251;53.550;9.918;2022-08-24T06:41:59;4.00;;;2.53;;
6436;SDS011;3251;53.550;9.918;2022-08-24T06:44:29;3.97;;;3.23;;
6436;SDS011;3251;53.550;9.918;2022-08-24T06:47:18;6.93;;;3.30;;
6436;SDS011;3251;53.550;9.918;2022-08-24T06:49:47;9.80;;;3.80;;
6436;SDS011;3251;53.550;9.918;2022-08-24T06:52:13;8.70;;;3.17;;
6436;SDS011;3251;53.550;9.918;2022-08-24T06:54:42;5.23;;;3.30;;
6436;SDS011;3251;53.550;9.918;2022-08-24T06:57:08;7.67;;;3.03;;
6436;SDS011;3251;53.550;9.918;2022-08-24T06:59:35;6.90;;;3.13;;
6436;SDS011;3251;53.550;9.918;2022-08-24T07:02:01;4.60;;;3.27;;
6436;SDS011;3251;53.550;9.918;2022-08-24T07:04:27;24.03;;;16.03;;
6436;SDS011;3251;53.550;9.918;2022-08-24T07:06:56;28.93;;;17.70;;
6436;SDS011;3251;53.550;9.918;2022-08-24T07:09:22;7.00;;;4.80;;
6436;SDS011;3251;53.550;9.918;2022-08-24T07:11:50;3.93;;;3.10;;
6436;SDS011;3251;53.550;9.918;2022-08-24T07:14:16;9.43;;;6.47;;
6436;SDS011;3251;53.550;9.918;2022-08-24T07:16:45;6.00;;;3.50;;
6436;SDS011;3251;53.550;9.918;2022-08-24T07:19:11;8.63;;;3.73;;
6436;SDS011;3251;53.550;9.918;2022-08-24T07:21:37;5.63;;;3.43;;
6436;SDS011;3251;53.550;9.918;2022-08-24T07:24:04;3.70;;;3.40;;
6436;SDS011;3251;53.550;9.918;2022-08-24T07:26:34;4.97;;;3.17;;
6436;SDS011;3251;53.550;9.918;2022-08-24T07:29:05;8.67;;;4.13;;
6436;SDS011;3251;53.550;9.918;2022-08-24T07:31:38;6.03;;;3.00;;
6436;SDS011;3251;53.550;9.918;2022-08-24T07:34:13;5.90;;;2.60;;
6436;SDS011;3251;53.550;9.918;2022-08-24T07:36:41;3.57;;;2.63;;
6436;SDS011;3251;53.550;9.918;2022-08-24T07:39:07;3.47;;;3.17;;
6436;SDS011;3251;53.550;9.918;2022-08-24T07:41:39;7.50;;;2.63;;
6436;SDS011;3251;53.550;9.918;2022-08-24T07:44:05;7.20;;;3.20;;
6436;SDS011;3251;53.550;9.918;2022-08-24T07:46:32;5.67;;;3.00;;
6436;SDS011;3251;53.550;9.918;2022-08-24T07:48:58;5.57;;;4.53;;
6436;SDS011;3251;53.550;9.918;2022-08-24T07:51:25;4.63;;;3.70;;
6436;SDS011;3251;53.550;9.918;2022-08-24T07:53:51;13.00;;;5.20;;
6436;SDS011;3251;53.550;9.918;2022-08-24T07:56:20;7.40;;;3.60;;
6436;SDS011;3251;53.550;9.918;2022-08-24T07:58:47;8.40;;;3.77;;
6436;SDS011;3251;53.550;9.918;2022-08-24T08:01:14;10.90;;;3.50;;
6436;SDS011;3251;53.550;9.918;2022-08-24T08:03:41;10.13;;;3.60;;
6436;SDS011;3251;53.550;9.918;2022-08-24T08:06:07;7.10;;;3.57;;
6436;SDS011;3251;53.550;9.918;2022-08-24T08:08:35;6.93;;;3.33;;
6436;SDS011;3251;53.550;9.918;2022-08-24T08:11:01;3.07;;;2.70;;
6436;SDS011;3251;53.550;9.918;2022-08-24T08:13:28;4.10;;;3.00;;
6436;SDS011;3251;53.550;9.918;2022-08-24T08:15:55;10.00;;;3.70;;
6436;SDS011;3251;53.550;9.918;2022-08-24T08:18:22;9.63;;;3.53;;
6436;SDS011;3251;53.550;9.918;2022-08-24T08:20:49;3.43;;;3.17;;
6436;SDS011;3251;53.550;9.918;2022-08-24T08:23:15;3.80;;;2.83;;
6436;SDS011;3251;53.550;9.918;2022-08-24T08:26:14;5.53;;;3.20;;
6436;SDS011;3251;53.550;9.918;2022-08-24T08:29:00;5.50;;;3.20;;
6436;SDS011;3251;53.550;9.918;2022-08-24T08:31:29;15.17;;;3.47;;
6436;SDS011;3251;53.550;9.918;2022-08-24T08:33:55;9.30;;;3.53;;
6436;SDS011;3251;53.550;9.918;2022-08-24T08:36:22;4.80;;;3.67;;
6436;SDS011;3251;53.550;9.918;2022-08-24T08:38:48;5.97;;;4.00;;
6436;SDS011;3251;53.550;9.918;2022-08-24T08:44:03;11.53;;;3.43;;
6436;SDS011;3251;53.550;9.918;2022-08-24T08:54:59;16.73;;;4.50;;
6436;SDS011;3251;53.550;9.918;2022-08-24T08:57:38;4.33;;;3.73;;
6436;SDS011;3251;53.550;9.918;2022-08-24T09:13:12;10.63;;;5.13;;
6436;SDS011;3251;53.550;9.918;2022-08-24T09:20:51;4.40;;;4.10;;
6436;SDS011;3251;53.550;9.918;2022-08-24T09:31:09;4.50;;;3.40;;
6436;SDS011;3251;53.550;9.918;2022-08-24T09:33:47;4.37;;;3.10;;
6436;SDS011;3251;53.550;9.918;2022-08-24T09:49:31;13.07;;;5.60;;
6436;SDS011;3251;53.550;9.918;2022-08-24T10:07:57;32.93;;;7.00;;
6436;SDS011;3251;53.550;9.918;2022-08-24T10:13:15;25.63;;;6.20;;
6436;SDS011;3251;53.550;9.918;2022-08-24T10:16:00;8.87;;;4.10;;
6436;SDS011;3251;53.550;9.918;2022-08-24T10:18:34;14.30;;;5.37;;
6436;SDS011;3251;53.550;9.918;2022-08-24T10:23:49;11.47;;;4.30;;
6436;SDS011;3251;53.550;9.918;2022-08-24T10:31:26;7.70;;;4.83;;
6436;SDS011;3251;53.550;9.918;2022-08-24T10:47:35;6.37;;;3.70;;
6436;SDS011;3251;53.550;9.918;2022-08-24T10:55:17;9.33;;;2.87;;
6436;SDS011;3251;53.550;9.918;2022-08-24T10:57:50;4.53;;;2.40;;
6436;SDS011;3251;53.550;9.918;2022-08-24T11:00:19;4.10;;;3.27;;
6436;SDS011;3251;53.550;9.918;2022-08-24T11:02:47;7.47;;;3.57;;
6436;SDS011;3251;53.550;9.918;2022-08-24T11:05:15;12.50;;;2.27;;
6436;SDS011;3251;53.550;9.918;2022-08-24T11:08:49;8.83;;;2.20;;
6436;SDS011;3251;53.550;9.918;2022-08-24T11:10:38;7.43;;;3.23;;
6436;SDS011;3251;53.550;9.918;2022-08-24T11:15:48;6.80;;;3.30;;
6436;SDS011;3251;53.550;9.918;2022-08-24T11:18:15;4.73;;;3.13;;
6436;SDS011;3251;53.550;9.918;2022-08-24T11:20:43;4.73;;;2.43;;
6436;SDS011;3251;53.550;9.918;2022-08-24T11:23:18;14.83;;;3.90;;
6436;SDS011;3251;53.550;9.918;2022-08-24T11:30:49;11.67;;;3.00;;
6436;SDS011;3251;53.550;9.918;2022-08-24T11:33:43;5.47;;;2.50;;
6436;SDS011;3251;53.550;9.918;2022-08-24T11:36:14;9.03;;;3.07;;
6436;SDS011;3251;53.550;9.918;2022-08-24T11:38:41;3.13;;;2.30;;
6436;SDS011;3251;53.550;9.918;2022-08-24T11:49:15;6.50;;;2.50;;
6436;SDS011;3251;53.550;9.918;2022-08-24T11:54:18;2.93;;;2.40;;
6436;SDS011;3251;53.550;9.918;2022-08-24T11:56:51;2.87;;;2.30;;
6436;SDS011;3251;53.550;9.918;2022-08-24T11:59:31;4.67;;;4.07;;
6436;SDS011;3251;53.550;9.918;2022-08-24T12:02:03;14.73;;;5.07;;
6436;SDS011;3251;53.550;9.918;2022-08-24T12:07:08;3.63;;;3.17;;
6436;SDS011;3251;53.550;9.918;2022-08-24T12:09:49;4.23;;;2.17;;
6436;SDS011;3251;53.550;9.918;2022-08-24T12:13:19;8.40;;;2.70;;
6436;SDS011;3251;53.550;9.918;2022-08-24T12:15:21;6.30;;;2.43;;
6436;SDS011;3251;53.550;9.918;2022-08-24T12:17:56;2.80;;;2.60;;
6436;SDS011;3251;53.550;9.918;2022-08-24T12:20:34;3.23;;;1.87;;
6436;SDS011;3251;53.550;9.918;2022-08-24T12:23:04;2.33;;;2.20;;
6436;SDS011;3251;53.550;9.918;2022-08-24T12:25:32;11.93;;;2.30;;
6436;SDS011;3251;53.550;9.918;2022-08-24T12:28:24;8.40;;;2.10;;
6436;SDS011;3251;53.550;9.918;2022-08-24T12:31:05;5.93;;;2.03;;
6436;SDS011;3251;53.550;9.918;2022-08-24T12:33:32;1.87;;;1.77;;
6436;SDS011;3251;53.550;9.918;2022-08-24T12:36:02;5.80;;;2.40;;
6436;SDS011;3251;53.550;9.918;2022-08-24T12:40:55;1.83;;;1.73;;
6436;SDS011;3251;53.550;9.918;2022-08-24T12:45:49;2.17;;;1.97;;
6436;SDS011;3251;53.550;9.918;2022-08-24T12:48:36;3.13;;;1.97;;
6436;SDS011;3251;53.550;9.918;2022-08-24T13:01:29;3.10;;;2.10;;
6436;SDS011;3251;53.550;9.918;2022-08-24T13:06:53;2.60;;;2.50;;
6436;SDS011;3251;53.550;9.918;2022-08-24T13:09:30;2.63;;;2.03;;
6436;SDS011;3251;53.550;9.918;2022-08-24T13:11:58;2.80;;;2.27;;
6436;SDS011;3251;53.550;9.918;2022-08-24T13:14:26;4.30;;;2.43;;
6436;SDS011;3251;53.550;9.918;2022-08-24T13:21:57;3.47;;;1.50;;
6436;SDS011;3251;53.550;9.918;2022-08-24T13:26:58;4.23;;;2.17;;
6436;SDS011;3251;53.550;9.918;2022-08-24T13:32:15;3.80;;;2.30;;
6436;SDS011;3251;53.550;9.918;2022-08-24T13:34:44;5.10;;;2.00;;
6436;SDS011;3251;53.550;9.918;2022-08-24T13:37:13;5.67;;;1.97;;
6436;SDS011;3251;53.550;9.918;2022-08-24T13:39:45;6.20;;;2.50;;
6436;SDS011;3251;53.550;9.918;2022-08-24T13:47:45;22.83;;;2.50;;
6436;SDS011;3251;53.550;9.918;2022-08-24T13:58:31;3.03;;;2.27;;
6436;SDS011;3251;53.550;9.918;2022-08-24T14:01:05;4.90;;;2.10;;
6436;SDS011;3251;53.550;9.918;2022-08-24T14:06:20;4.80;;;2.40;;
6436;SDS011;3251;53.550;9.918;2022-08-24T14:11:19;10.73;;;2.20;;
6436;SDS011;3251;53.550;9.918;2022-08-24T14:19:21;5.50;;;3.10;;
6436;SDS011;3251;53.550;9.918;2022-08-24T14:24:36;2.73;;;1.63;;
6436;SDS011;3251;53.550;9.918;2022-08-24T14:27:05;6.50;;;2.03;;
6436;SDS011;3251;53.550;9.918;2022-08-24T14:29:33;6.07;;;2.50;;
6436;SDS011;3251;53.550;9.918;2022-08-24T14:34:29;2.23;;;2.00;;
6436;SDS011;3251;53.550;9.918;2022-08-24T14:37:04;4.13;;;2.03;;
6436;SDS011;3251;53.550;9.918;2022-08-24T14:39:35;3.73;;;2.17;;
6436;SDS011;3251;53.550;9.918;2022-08-24T14:47:33;3.83;;;2.57;;
6436;SDS011;3251;53.550;9.918;2022-08-24T14:50:09;18.93;;;3.37;;
6436;SDS011;3251;53.550;9.918;2022-08-24T14:52:51;2.70;;;2.50;;
6436;SDS011;3251;53.550;9.918;2022-08-24T14:58:23;4.03;;;2.60;;
6436;SDS011;3251;53.550;9.918;2022-08-24T15:03:22;5.43;;;2.30;;
6436;SDS011;3251;53.550;9.918;2022-08-24T15:06:06;4.20;;;2.03;;
6436;SDS011;3251;53.550;9.918;2022-08-24T15:08:35;7.70;;;2.17;;
6436;SDS011;3251;53.550;9.918;2022-08-24T15:13:38;6.40;;;2.97;;
6436;SDS011;3251;53.550;9.918;2022-08-24T15:16:08;3.50;;;2.30;;
6436;SDS011;3251;53.550;9.918;2022-08-24T15:23:51;3.93;;;1.80;;
6436;SDS011;3251;53.550;9.918;2022-08-24T15:26:28;2.10;;;1.90;;
6436;SDS011;3251;53.550;9.918;2022-08-24T15:28:56;6.37;;;1.73;;
6436;SDS011;3251;53.550;9.918;2022-08-24T15:31:27;4.00;;;2.57;;
6436;SDS011;3251;53.550;9.918;2022-08-24T15:33:55;3.37;;;1.97;;
6436;SDS011;3251;53.550;9.918;2022-08-24T15:36:22;1.63;;;1.53;;
6436;SDS011;3251;53.550;9.918;2022-08-24T15:38:48;3.90;;;2.17;;
6436;SDS011;3251;53.550;9.918;2022-08-24T15:41:16;2.40;;;1.87;;
6436;SDS011;3251;53.550;9.918;2022-08-24T15:43:44;5.97;;;2.27;;
6436;SDS011;3251;53.550;9.918;2022-08-24T15:46:11;4.03;;;2.27;;
6436;SDS011;3251;53.550;9.918;2022-08-24T15:48:39;6.93;;;2.93;;
6436;SDS011;3251;53.550;9.918;2022-08-24T15:51:07;3.87;;;3.57;;
6436;SDS011;3251;53.550;9.918;2022-08-24T15:53:37;7.00;;;2.30;;
6436;SDS011;3251;53.550;9.918;2022-08-24T15:58:51;2.43;;;2.23;;
6436;SDS011;3251;53.550;9.918;2022-08-24T16:01:19;2.70;;;2.30;;
6436;SDS011;3251;53.550;9.918;2022-08-24T16:04:10;1.93;;;1.70;;
6436;SDS011;3251;53.550;9.918;2022-08-24T16:06:39;4.27;;;2.07;;
6436;SDS011;3251;53.550;9.918;2022-08-24T16:09:31;2.67;;;1.70;;
6436;SDS011;3251;53.550;9.918;2022-08-24T16:12:03;4.40;;;2.00;;
6436;SDS011;3251;53.550;9.918;2022-08-24T16:14:30;3.13;;;2.30;;
6436;SDS011;3251;53.550;9.918;2022-08-24T16:16:57;5.17;;;2.00;;
6436;SDS011;3251;53.550;9.918;2022-08-24T16:21:59;2.93;;;2.63;;
6436;SDS011;3251;53.550;9.918;2022-08-24T16:24:36;1.80;;;1.70;;
6436;SDS011;3251;53.550;9.918;2022-08-24T16:27:07;4.97;;;2.27;;
6436;SDS011;3251;53.550;9.918;2022-08-24T16:32:07;1.83;;;1.57;;
6436;SDS011;3251;53.550;9.918;2022-08-24T16:34:35;3.23;;;1.77;;
6436;SDS011;3251;53.550;9.918;2022-08-24T16:37:02;3.30;;;2.37;;
6436;SDS011;3251;53.550;9.918;2022-08-24T16:39:28;2.03;;;1.93;;
6436;SDS011;3251;53.550;9.918;2022-08-24T16:41:59;7.40;;;2.67;;
6436;SDS011;3251;53.550;9.918;2022-08-24T16:44:33;5.50;;;2.70;;
6436;SDS011;3251;53.550;9.918;2022-08-24T16:47:00;1.63;;;1.37;;
6436;SDS011;3251;53.550;9.918;2022-08-24T16:49:27;6.90;;;3.23;;
6436;SDS011;3251;53.550;9.918;2022-08-24T16:51:53;4.57;;;1.90;;
6436;SDS011;3251;53.550;9.918;2022-08-24T16:54:19;3.53;;;2.00;;
6436;SDS011;3251;53.550;9.918;2022-08-24T16:56:45;2.53;;;2.33;;
6436;SDS011;3251;53.550;9.918;2022-08-24T16:59:13;2.07;;;1.87;;
6436;SDS011;3251;53.550;9.918;2022-08-24T17:01:40;2.70;;;1.90;;
6436;SDS011;3251;53.550;9.918;2022-08-24T17:04:06;5.77;;;1.90;;
6436;SDS011;3251;53.550;9.918;2022-08-24T17:06:32;3.00;;;2.10;;
6436;SDS011;3251;53.550;9.918;2022-08-24T17:08:58;4.77;;;2.97;;
6436;SDS011;3251;53.550;9.918;2022-08-24T17:11:25;9.23;;;2.30;;
6436;SDS011;3251;53.550;9.918;2022-08-24T17:13:52;2.27;;;2.13;;
6436;SDS011;3251;53.550;9.918;2022-08-24T17:16:19;2.50;;;2.10;;
6436;SDS011;3251;53.550;9.918;2022-08-24T17:18:45;2.67;;;2.00;;
6436;SDS011;3251;53.550;9.918;2022-08-24T17:21:12;3.87;;;1.40;;
6436;SDS011;3251;53.550;9.918;2022-08-24T17:23:38;4.47;;;2.80;;
6436;SDS011;3251;53.550;9.918;2022-08-24T17:26:06;7.83;;;2.67;;
6436;SDS011;3251;53.550;9.918;2022-08-24T17:28:35;5.83;;;2.17;;
6436;SDS011;3251;53.550;9.918;2022-08-24T17:31:03;6.17;;;2.17;;
6436;SDS011;3251;53.550;9.918;2022-08-24T17:33:30;2.10;;;2.00;;
6436;SDS011;3251;53.550;9.918;2022-08-24T17:35:56;6.63;;;2.77;;
6436;SDS011;3251;53.550;9.918;2022-08-24T17:38:23;8.37;;;2.60;;
6436;SDS011;3251;53.550;9.918;2022-08-24T17:40:49;4.33;;;2.40;;
6436;SDS011;3251;53.550;9.918;2022-08-24T17:43:16;6.40;;;2.00;;
6436;SDS011;3251;53.550;9.918;2022-08-24T17:45:42;7.03;;;2.40;;
6436;SDS011;3251;53.550;9.918;2022-08-24T17:48:09;3.43;;;3.10;;
6436;SDS011;3251;53.550;9.918;2022-08-24T17:50:36;7.10;;;2.67;;
6436;SDS011;3251;53.550;9.918;2022-08-24T17:53:02;8.97;;;3.93;;
6436;SDS011;3251;53.550;9.918;2022-08-24T17:55:28;2.80;;;2.33;;
6436;SDS011;3251;53.550;9.918;2022-08-24T17:57:54;12.83;;;2.83;;
6436;SDS011;3251;53.550;9.918;2022-08-24T18:00:20;5.27;;;3.20;;
6436;SDS011;3251;53.550;9.918;2022-08-24T18:02:46;8.17;;;3.30;;
6436;SDS011;3251;53.550;9.918;2022-08-24T18:05:12;6.60;;;3.70;;
6436;SDS011;3251;53.550;9.918;2022-08-24T18:07:39;6.33;;;2.93;;
6436;SDS011;3251;53.550;9.918;2022-08-24T18:10:08;4.70;;;3.40;;
6436;SDS011;3251;53.550;9.918;2022-08-24T18:12:35;7.27;;;4.13;;
6436;SDS011;3251;53.550;9.918;2022-08-24T18:15:01;4.10;;;3.40;;
6436;SDS011;3251;53.550;9.918;2022-08-24T18:17:38;8.43;;;3.90;;
6436;SDS011;3251;53.550;9.918;2022-08-24T18:20:07;4.13;;;3.00;;
6436;SDS011;3251;53.550;9.918;2022-08-24T18:22:34;10.60;;;3.27;;
6436;SDS011;3251;53.550;9.918;2022-08-24T18:25:00;4.33;;;3.10;;
6436;SDS011;3251;53.550;9.918;2022-08-24T18:27:27;9.07;;;4.43;;
6436;SDS011;3251;53.550;9.918;2022-08-24T18:29:58;3.87;;;3.03;;
6436;SDS011;3251;53.550;9.918;2022-08-24T18:32:26;3.60;;;3.17;;
6436;SDS011;3251;53.550;9.918;2022-08-24T18:34:52;9.23;;;4.23;;
6436;SDS011;3251;53.550;9.918;2022-08-24T18:37:18;6.83;;;3.43;;
6436;SDS011;3251;53.550;9.918;2022-08-24T18:39:44;7.30;;;4.60;;
6436;SDS011;3251;53.550;9.918;2022-08-24T18:42:10;5.47;;;4.10;;
6436;SDS011;3251;53.550;9.918;2022-08-24T18:44:37;5.20;;;4.60;;
6436;SDS011;3251;53.550;9.918;2022-08-24T18:47:04;5.57;;;3.43;;
6436;SDS011;3251;53.550;9.918;2022-08-24T18:49:30;8.03;;;4.80;;
6436;SDS011;3251;53.550;9.918;2022-08-24T18:51:56;8.70;;;4.97;;